Fassett, Pennsylvania
Current Conditions -  °F | °C
As of 8:53 PM on Saturday 22 Nov 2014 (Local Time) from KELM Reporting Station
Light Rain Light Rain  
Wind Chill: 36°   Ceiling: 4900
Heat Index: 43°   Visibility: 10mi
Dew Point: 34°   Wind: 15mph
Humidity: 71%   Direction: 240°WSW
Pressure: 30.06"   Gusts: 23mph
Location:  41.9519°N, 76.7808°W
Report Text: KELM 230153Z AUTO 24013G20KT 10SM -RA OVC049 06/01 A3006 RMK AO2 RAB37 SLP190 P0000 T00610011
Loading
Personal Weather Stations






























Interactive Weather Map New forecast layout! Learn more

10-Day Weather Forecast

Advertisements
Track Severe Weather on mobile